sensor_id;sensor_type;location;lat;lon;timestamp;pressure;altitude;pressure_sealevel;temperature
75273;BMP280;63869;52.344;16.928;2023-04-24T00:00:54;99748.91;;;13.90
75273;BMP280;63869;52.344;16.928;2023-04-24T00:03:24;99753.84;;;13.92
75273;BMP280;63869;52.344;16.928;2023-04-24T00:05:50;99754.84;;;13.94
75273;BMP280;63869;52.344;16.928;2023-04-24T00:08:16;99745.16;;;13.97
75273;BMP280;63869;52.344;16.928;2023-04-24T00:10:41;99750.97;;;13.95
75273;BMP280;63869;52.344;16.928;2023-04-24T00:13:07;99746.91;;;14.00
75273;BMP280;63869;52.344;16.928;2023-04-24T00:15:32;99751.56;;;14.00
75273;BMP280;63869;52.344;16.928;2023-04-24T00:17:58;99749.63;;;14.00
75273;BMP280;63869;52.344;16.928;2023-04-24T00:20:23;99747.84;;;13.97
75273;BMP280;63869;52.344;16.928;2023-04-24T00:22:48;99742.47;;;13.97
75273;BMP280;63869;52.344;16.928;2023-04-24T00:25:14;99738.13;;;14.00
75273;BMP280;63869;52.344;16.928;2023-04-24T00:27:39;99730.78;;;14.00
75273;BMP280;63869;52.344;16.928;2023-04-24T00:30:05;99726.03;;;13.95
75273;BMP280;63869;52.344;16.928;2023-04-24T00:32:31;99726.34;;;13.97
75273;BMP280;63869;52.344;16.928;2023-04-24T00:34:56;99719.78;;;13.98
75273;BMP280;63869;52.344;16.928;2023-04-24T00:37:21;99718.44;;;14.03
75273;BMP280;63869;52.344;16.928;2023-04-24T00:39:46;99723.63;;;14.06
75273;BMP280;63869;52.344;16.928;2023-04-24T00:42:12;99718.56;;;14.08
75273;BMP280;63869;52.344;16.928;2023-04-24T00:44:38;99723.19;;;14.08
75273;BMP280;63869;52.344;16.928;2023-04-24T00:47:03;99729.75;;;14.07
75273;BMP280;63869;52.344;16.928;2023-04-24T00:49:29;99725.13;;;14.07
75273;BMP280;63869;52.344;16.928;2023-04-24T00:51:56;99730.94;;;14.06
75273;BMP280;63869;52.344;16.928;2023-04-24T00:54:22;99721.25;;;14.08
75273;BMP280;63869;52.344;16.928;2023-04-24T00:56:47;99722.00;;;14.09
75273;BMP280;63869;52.344;16.928;2023-04-24T00:59:16;99714.69;;;14.09
75273;BMP280;63869;52.344;16.928;2023-04-24T01:01:42;99720.50;;;14.08
75273;BMP280;63869;52.344;16.928;2023-04-24T01:04:09;99723.47;;;14.10
75273;BMP280;63869;52.344;16.928;2023-04-24T01:06:38;99706.63;;;14.09
75273;BMP280;63869;52.344;16.928;2023-04-24T01:09:05;99703.63;;;14.07
75273;BMP280;63869;52.344;16.928;2023-04-24T01:11:30;99695.25;;;14.05
75273;BMP280;63869;52.344;16.928;2023-04-24T01:13:56;99692.56;;;14.05
75273;BMP280;63869;52.344;16.928;2023-04-24T01:16:22;99694.06;;;14.06
75273;BMP280;63869;52.344;16.928;2023-04-24T01:18:47;99686.59;;;14.01
75273;BMP280;63869;52.344;16.928;2023-04-24T01:21:14;99691.81;;;14.05
75273;BMP280;63869;52.344;16.928;2023-04-24T01:23:43;99695.25;;;14.05
75273;BMP280;63869;52.344;16.928;2023-04-24T01:26:08;99688.53;;;14.01
75273;BMP280;63869;52.344;16.928;2023-04-24T01:28:33;99692.31;;;14.03
75273;BMP280;63869;52.344;16.928;2023-04-24T01:30:59;99703.47;;;14.02
75273;BMP280;63869;52.344;16.928;2023-04-24T01:33:25;99696.31;;;13.99
75273;BMP280;63869;52.344;16.928;2023-04-24T01:35:50;99693.34;;;13.97
75273;BMP280;63869;52.344;16.928;2023-04-24T01:38:16;99701.69;;;13.99
75273;BMP280;63869;52.344;16.928;2023-04-24T01:40:41;99701.22;;;14.00
75273;BMP280;63869;52.344;16.928;2023-04-24T01:43:06;99705.88;;;14.00
75273;BMP280;63869;52.344;16.928;2023-04-24T01:45:32;99713.19;;;13.99
75273;BMP280;63869;52.344;16.928;2023-04-24T01:47:57;99710.22;;;13.97
75273;BMP280;63869;52.344;16.928;2023-04-24T01:50:22;99702.91;;;13.98
75273;BMP280;63869;52.344;16.928;2023-04-24T01:52:48;99696.31;;;13.99
75273;BMP280;63869;52.344;16.928;2023-04-24T01:55:13;99693.16;;;14.00
75273;BMP280;63869;52.344;16.928;2023-04-24T01:57:39;99692.72;;;14.02
75273;BMP280;63869;52.344;16.928;2023-04-24T02:00:05;99686.94;;;14.03
75273;BMP280;63869;52.344;16.928;2023-04-24T02:02:32;99690.81;;;14.02
75273;BMP280;63869;52.344;16.928;2023-04-24T02:04:57;99679.00;;;14.09
75273;BMP280;63869;52.344;16.928;2023-04-24T02:07:22;99671.38;;;14.07
75273;BMP280;63869;52.344;16.928;2023-04-24T02:09:48;99671.94;;;14.11
75273;BMP280;63869;52.344;16.928;2023-04-24T02:12:14;99653.00;;;14.06
75273;BMP280;63869;52.344;16.928;2023-04-24T02:14:40;99651.06;;;14.06
75273;BMP280;63869;52.344;16.928;2023-04-24T02:17:05;99653.47;;;14.04
75273;BMP280;63869;52.344;16.928;2023-04-24T02:19:31;99644.22;;;13.96
75273;BMP280;63869;52.344;16.928;2023-04-24T02:21:57;99646.63;;;13.94
75273;BMP280;63869;52.344;16.928;2023-04-24T02:24:22;99643.38;;;13.90
75273;BMP280;63869;52.344;16.928;2023-04-24T02:26:47;99635.00;;;13.88
75273;BMP280;63869;52.344;16.928;2023-04-24T02:29:12;99631.56;;;13.87
75273;BMP280;63869;52.344;16.928;2023-04-24T02:31:38;99631.72;;;13.84
75273;BMP280;63869;52.344;16.928;2023-04-24T02:34:03;99635.59;;;13.83
75273;BMP280;63869;52.344;16.928;2023-04-24T02:36:28;99636.03;;;13.81
75273;BMP280;63869;52.344;16.928;2023-04-24T02:38:54;99625.75;;;13.80
75273;BMP280;63869;52.344;16.928;2023-04-24T02:41:19;99625.75;;;13.80
75273;BMP280;63869;52.344;16.928;2023-04-24T02:43:44;99625.59;;;13.83
75273;BMP280;63869;52.344;16.928;2023-04-24T02:46:10;99625.59;;;13.83
75273;BMP280;63869;52.344;16.928;2023-04-24T02:48:35;99621.72;;;13.84
75273;BMP280;63869;52.344;16.928;2023-04-24T02:51:00;99614.41;;;13.85
75273;BMP280;63869;52.344;16.928;2023-04-24T02:53:26;99610.81;;;13.88
75273;BMP280;63869;52.344;16.928;2023-04-24T02:55:51;99609.91;;;13.91
75273;BMP280;63869;52.344;16.928;2023-04-24T02:58:17;99610.19;;;13.93
75273;BMP280;63869;52.344;16.928;2023-04-24T03:00:42;99606.75;;;13.92
75273;BMP280;63869;52.344;16.928;2023-04-24T03:03:08;99610.50;;;13.95
75273;BMP280;63869;52.344;16.928;2023-04-24T03:05:34;99602.13;;;13.93
75273;BMP280;63869;52.344;16.928;2023-04-24T03:07:59;99601.22;;;13.96
75273;BMP280;63869;52.344;16.928;2023-04-24T03:10:25;99608.84;;;13.98
75273;BMP280;63869;52.344;16.928;2023-04-24T03:12:50;99604.22;;;13.98
75273;BMP280;63869;52.344;16.928;2023-04-24T03:15:15;99586.59;;;13.97
75273;BMP280;63869;52.344;16.928;2023-04-24T03:17:41;99583.91;;;13.97
75273;BMP280;63869;52.344;16.928;2023-04-24T03:20:07;99590.28;;;14.00
75273;BMP280;63869;52.344;16.928;2023-04-24T03:22:35;99584.47;;;14.01
75273;BMP280;63869;52.344;16.928;2023-04-24T03:25:01;99575.84;;;13.97
75273;BMP280;63869;52.344;16.928;2023-04-24T03:27:26;99584.19;;;13.99
75273;BMP280;63869;52.344;16.928;2023-04-24T03:29:51;99584.19;;;13.99
75273;BMP280;63869;52.344;16.928;2023-04-24T03:32:20;99577.03;;;13.96
75273;BMP280;63869;52.344;16.928;2023-04-24T03:34:46;99579.88;;;13.92
75273;BMP280;63869;52.344;16.928;2023-04-24T03:37:11;99577.38;;;13.89
75273;BMP280;63869;52.344;16.928;2023-04-24T03:39:36;99581.72;;;13.86
75273;BMP280;63869;52.344;16.928;2023-04-24T03:42:01;99580.66;;;13.84
75273;BMP280;63869;52.344;16.928;2023-04-24T03:44:27;99577.69;;;13.82
75273;BMP280;63869;52.344;16.928;2023-04-24T03:46:52;99563.50;;;13.81
75273;BMP280;63869;52.344;16.928;2023-04-24T03:49:18;99552.00;;;13.81
75273;BMP280;63869;52.344;16.928;2023-04-24T03:51:43;99549.63;;;13.83
75273;BMP280;63869;52.344;16.928;2023-04-24T03:54:08;99546.66;;;13.81
75273;BMP280;63869;52.344;16.928;2023-04-24T03:56:34;99555.34;;;13.76
75273;BMP280;63869;52.344;16.928;2023-04-24T03:58:59;99552.09;;;13.72
75273;BMP280;63869;52.344;16.928;2023-04-24T04:01:25;99558.94;;;13.64
75273;BMP280;63869;52.344;16.928;2023-04-24T04:03:50;99553.16;;;13.56
75273;BMP280;63869;52.344;16.928;2023-04-24T04:06:16;99563.75;;;13.50
75273;BMP280;63869;52.344;16.928;2023-04-24T04:08:41;99568.81;;;13.48
75273;BMP280;63869;52.344;16.928;2023-04-24T04:11:06;99570.19;;;13.44
75273;BMP280;63869;52.344;16.928;2023-04-24T04:13:32;99572.72;;;13.38
75273;BMP280;63869;52.344;16.928;2023-04-24T04:15:57;99572.59;;;13.42
75273;BMP280;63869;52.344;16.928;2023-04-24T04:18:22;99576.31;;;13.44
75273;BMP280;63869;52.344;16.928;2023-04-24T04:20:47;99569.00;;;13.45
75273;BMP280;63869;52.344;16.928;2023-04-24T04:23:13;99577.19;;;13.50
75273;BMP280;63869;52.344;16.928;2023-04-24T04:25:38;99579.88;;;13.60
75273;BMP280;63869;52.344;16.928;2023-04-24T04:28:03;99564.31;;;13.64
75273;BMP280;63869;52.344;16.928;2023-04-24T04:30:29;99565.03;;;13.73
75273;BMP280;63869;52.344;16.928;2023-04-24T04:32:57;99561.75;;;13.78
75273;BMP280;63869;52.344;16.928;2023-04-24T04:35:24;99565.13;;;13.88
75273;BMP280;63869;52.344;16.928;2023-04-24T04:37:50;99553.75;;;13.93
75273;BMP280;63869;52.344;16.928;2023-04-24T04:40:16;99544.78;;;13.96
75273;BMP280;63869;52.344;16.928;2023-04-24T04:42:42;99547.91;;;14.04
75273;BMP280;63869;52.344;16.928;2023-04-24T04:45:10;99544.91;;;14.02
75273;BMP280;63869;52.344;16.928;2023-04-24T04:47:37;99551.66;;;13.97
75273;BMP280;63869;52.344;16.928;2023-04-24T04:50:03;99553.75;;;13.93
75273;BMP280;63869;52.344;16.928;2023-04-24T04:52:29;99550.81;;;13.91
75273;BMP280;63869;52.344;16.928;2023-04-24T04:54:55;99561.41;;;13.85
75273;BMP280;63869;52.344;16.928;2023-04-24T04:57:20;99563.97;;;13.80
75273;BMP280;63869;52.344;16.928;2023-04-24T04:59:46;99559.81;;;13.79
75273;BMP280;63869;52.344;16.928;2023-04-24T05:02:11;99556.06;;;13.76
75273;BMP280;63869;52.344;16.928;2023-04-24T05:04:37;99556.06;;;13.76
75273;BMP280;63869;52.344;16.928;2023-04-24T05:07:03;99546.22;;;13.73
75273;BMP280;63869;52.344;16.928;2023-04-24T05:09:28;99553.69;;;13.78
75273;BMP280;63869;52.344;16.928;2023-04-24T05:11:54;99552.00;;;13.81
75273;BMP280;63869;52.344;16.928;2023-04-24T05:14:20;99556.50;;;13.84
75273;BMP280;63869;52.344;16.928;2023-04-24T05:16:46;99558.88;;;13.91
75273;BMP280;63869;52.344;16.928;2023-04-24T05:19:11;99551.63;;;14.06
75273;BMP280;63869;52.344;16.928;2023-04-24T05:21:40;99558.28;;;14.20
75273;BMP280;63869;52.344;16.928;2023-04-24T05:24:06;99549.34;;;14.38
75273;BMP280;63869;52.344;16.928;2023-04-24T05:26:31;99540.69;;;14.57
75273;BMP280;63869;52.344;16.928;2023-04-24T05:28:56;99542.38;;;14.69
75273;BMP280;63869;52.344;16.928;2023-04-24T05:31:22;99542.41;;;14.84
75273;BMP280;63869;52.344;16.928;2023-04-24T05:33:47;99550.03;;;15.00
75273;BMP280;63869;52.344;16.928;2023-04-24T05:36:12;99539.91;;;15.10
75273;BMP280;63869;52.344;16.928;2023-04-24T05:38:38;99549.31;;;15.15
75273;BMP280;63869;52.344;16.928;2023-04-24T05:41:03;99542.72;;;15.16
75273;BMP280;63869;52.344;16.928;2023-04-24T05:43:29;99545.97;;;15.20
75273;BMP280;63869;52.344;16.928;2023-04-24T05:45:54;99547.97;;;15.25
75273;BMP280;63869;52.344;16.928;2023-04-24T05:48:20;99547.63;;;15.32
75273;BMP280;63869;52.344;16.928;2023-04-24T05:50:47;99540.63;;;15.40
75273;BMP280;63869;52.344;16.928;2023-04-24T05:53:13;99545.94;;;15.49
75273;BMP280;63869;52.344;16.928;2023-04-24T05:55:38;99553.59;;;15.56
75273;BMP280;63869;52.344;16.928;2023-04-24T05:58:04;99561.16;;;15.67
75273;BMP280;63869;52.344;16.928;2023-04-24T06:00:29;99555.34;;;15.74
75273;BMP280;63869;52.344;16.928;2023-04-24T06:02:55;99548.31;;;15.76
75273;BMP280;63869;52.344;16.928;2023-04-24T06:05:20;99557.16;;;15.77
75273;BMP280;63869;52.344;16.928;2023-04-24T06:07:46;99557.03;;;15.71
75273;BMP280;63869;52.344;16.928;2023-04-24T06:10:11;99549.63;;;15.66
75273;BMP280;63869;52.344;16.928;2023-04-24T06:12:36;99551.75;;;15.62
75273;BMP280;63869;52.344;16.928;2023-04-24T06:15:03;99546.38;;;15.62
75273;BMP280;63869;52.344;16.928;2023-04-24T06:17:28;99561.78;;;15.62
75273;BMP280;63869;52.344;16.928;2023-04-24T06:19:55;99560.13;;;15.64
75273;BMP280;63869;52.344;16.928;2023-04-24T06:22:20;99554.28;;;15.66
75273;BMP280;63869;52.344;16.928;2023-04-24T06:24:47;99560.19;;;15.70
75273;BMP280;63869;52.344;16.928;2023-04-24T06:27:13;99554.59;;;15.73
75273;BMP280;63869;52.344;16.928;2023-04-24T06:29:39;99560.59;;;15.77
75273;BMP280;63869;52.344;16.928;2023-04-24T06:32:04;99548.91;;;15.86
75273;BMP280;63869;52.344;16.928;2023-04-24T06:34:30;99547.50;;;15.91
75273;BMP280;63869;52.344;16.928;2023-04-24T06:36:56;99543.69;;;15.97
75273;BMP280;63869;52.344;16.928;2023-04-24T06:39:21;99560.91;;;16.05
75273;BMP280;63869;52.344;16.928;2023-04-24T06:41:46;99557.22;;;16.03
75273;BMP280;63869;52.344;16.928;2023-04-24T06:44:13;99544.66;;;16.00
75273;BMP280;63869;52.344;16.928;2023-04-24T06:46:40;99556.94;;;16.01
75273;BMP280;63869;52.344;16.928;2023-04-24T06:49:05;99545.09;;;15.93
75273;BMP280;63869;52.344;16.928;2023-04-24T06:51:31;99561.88;;;16.02
75273;BMP280;63869;52.344;16.928;2023-04-24T06:53:58;99548.38;;;16.02
75273;BMP280;63869;52.344;16.928;2023-04-24T06:56:23;99548.75;;;16.10
75273;BMP280;63869;52.344;16.928;2023-04-24T06:58:49;99545.78;;;16.28
75273;BMP280;63869;52.344;16.928;2023-04-24T07:01:14;99539.59;;;16.48
75273;BMP280;63869;52.344;16.928;2023-04-24T07:03:39;99549.22;;;16.75
75273;BMP280;63869;52.344;16.928;2023-04-24T07:06:05;99550.72;;;17.02
75273;BMP280;63869;52.344;16.928;2023-04-24T07:08:30;99550.56;;;17.16
75273;BMP280;63869;52.344;16.928;2023-04-24T07:10:56;99551.88;;;17.26
75273;BMP280;63869;52.344;16.928;2023-04-24T07:13:23;99554.91;;;17.34
75273;BMP280;63869;52.344;16.928;2023-04-24T07:15:49;99557.88;;;17.42
75273;BMP280;63869;52.344;16.928;2023-04-24T07:18:19;99560.31;;;17.39
75273;BMP280;63869;52.344;16.928;2023-04-24T07:20:45;99561.84;;;17.46
75273;BMP280;63869;52.344;16.928;2023-04-24T07:23:10;99561.16;;;17.51
75273;BMP280;63869;52.344;16.928;2023-04-24T07:25:36;99561.94;;;17.57
75273;BMP280;63869;52.344;16.928;2023-04-24T07:28:01;99560.94;;;17.55
75273;BMP280;63869;52.344;16.928;2023-04-24T07:30:26;99566.28;;;17.49
75273;BMP280;63869;52.344;16.928;2023-04-24T07:32:54;99555.53;;;17.55
75273;BMP280;63869;52.344;16.928;2023-04-24T07:35:19;99562.53;;;17.78
75273;BMP280;63869;52.344;16.928;2023-04-24T07:37:45;99558.22;;;18.03
75273;BMP280;63869;52.344;16.928;2023-04-24T07:40:12;99559.81;;;18.26
75273;BMP280;63869;52.344;16.928;2023-04-24T07:42:38;99563.53;;;18.40
75273;BMP280;63869;52.344;16.928;2023-04-24T07:45:03;99563.34;;;18.49
75273;BMP280;63869;52.344;16.928;2023-04-24T07:47:29;99558.41;;;18.53
75273;BMP280;63869;52.344;16.928;2023-04-24T07:49:54;99564.84;;;18.61
75273;BMP280;63869;52.344;16.928;2023-04-24T07:52:20;99551.03;;;18.59
75273;BMP280;63869;52.344;16.928;2023-04-24T07:54:45;99556.00;;;18.77
75273;BMP280;63869;52.344;16.928;2023-04-24T07:57:10;99554.28;;;18.91
75273;BMP280;63869;52.344;16.928;2023-04-24T07:59:36;99565.13;;;18.91
75273;BMP280;63869;52.344;16.928;2023-04-24T08:02:02;99564.38;;;18.90
75273;BMP280;63869;52.344;16.928;2023-04-24T08:04:27;99564.38;;;18.90
75273;BMP280;63869;52.344;16.928;2023-04-24T08:06:53;99557.94;;;18.82
75273;BMP280;63869;52.344;16.928;2023-04-24T08:09:18;99564.59;;;18.70
75273;BMP280;63869;52.344;16.928;2023-04-24T08:11:43;99568.53;;;18.64
75273;BMP280;63869;52.344;16.928;2023-04-24T08:14:09;99568.00;;;18.54
75273;BMP280;63869;52.344;16.928;2023-04-24T08:16:34;99575.88;;;18.52
75273;BMP280;63869;52.344;16.928;2023-04-24T08:19:00;99580.06;;;18.53
75273;BMP280;63869;52.344;16.928;2023-04-24T08:21:27;99577.34;;;18.53
75273;BMP280;63869;52.344;16.928;2023-04-24T08:23:52;99577.34;;;18.53
75273;BMP280;63869;52.344;16.928;2023-04-24T08:26:18;99575.88;;;18.57
75273;BMP280;63869;52.344;16.928;2023-04-24T08:28:43;99574.22;;;18.77
75273;BMP280;63869;52.344;16.928;2023-04-24T08:31:09;99568.81;;;18.99
75273;BMP280;63869;52.344;16.928;2023-04-24T08:33:34;99577.41;;;19.14
75273;BMP280;63869;52.344;16.928;2023-04-24T08:36:04;99571.75;;;19.18
75273;BMP280;63869;52.344;16.928;2023-04-24T08:38:29;99567.81;;;19.30
75273;BMP280;63869;52.344;16.928;2023-04-24T08:40:57;99562.38;;;19.41
75273;BMP280;63869;52.344;16.928;2023-04-24T08:43:23;99565.59;;;19.40
75273;BMP280;63869;52.344;16.928;2023-04-24T08:45:50;99554.97;;;19.42
75273;BMP280;63869;52.344;16.928;2023-04-24T08:48:16;99557.69;;;19.36
75273;BMP280;63869;52.344;16.928;2023-04-24T08:50:41;99571.53;;;19.27
75273;BMP280;63869;52.344;16.928;2023-04-24T08:53:08;99555.50;;;19.18
75273;BMP280;63869;52.344;16.928;2023-04-24T08:55:33;99561.88;;;19.20
75273;BMP280;63869;52.344;16.928;2023-04-24T08:58:00;99566.31;;;19.29
75273;BMP280;63869;52.344;16.928;2023-04-24T09:00:26;99562.66;;;19.26
75273;BMP280;63869;52.344;16.928;2023-04-24T09:02:53;99563.84;;;19.36
75273;BMP280;63869;52.344;16.928;2023-04-24T09:05:21;99561.13;;;19.48
75273;BMP280;63869;52.344;16.928;2023-04-24T09:07:51;99564.78;;;19.61
75273;BMP280;63869;52.344;16.928;2023-04-24T09:10:18;99565.22;;;19.76
75273;BMP280;63869;52.344;16.928;2023-04-24T09:12:44;99573.28;;;19.99
75273;BMP280;63869;52.344;16.928;2023-04-24T09:15:10;99562.06;;;20.25
75273;BMP280;63869;52.344;16.928;2023-04-24T09:17:36;99573.28;;;20.51
75273;BMP280;63869;52.344;16.928;2023-04-24T09:20:02;99568.97;;;20.67
75273;BMP280;63869;52.344;16.928;2023-04-24T09:22:30;99570.41;;;20.73
75273;BMP280;63869;52.344;16.928;2023-04-24T09:25:03;99567.44;;;20.71
75273;BMP280;63869;52.344;16.928;2023-04-24T09:27:31;99560.75;;;20.78
75273;BMP280;63869;52.344;16.928;2023-04-24T09:29:57;99558.56;;;20.71
75273;BMP280;63869;52.344;16.928;2023-04-24T09:32:23;99557.75;;;20.81
75273;BMP280;63869;52.344;16.928;2023-04-24T09:35:05;99554.19;;;20.92
75273;BMP280;63869;52.344;16.928;2023-04-24T09:37:36;99558.06;;;21.02
75273;BMP280;63869;52.344;16.928;2023-04-24T09:40:14;99563.06;;;21.22
75273;BMP280;63869;52.344;16.928;2023-04-24T09:42:52;99563.63;;;21.39
75273;BMP280;63869;52.344;16.928;2023-04-24T09:45:18;99564.47;;;21.53
75273;BMP280;63869;52.344;16.928;2023-04-24T09:47:43;99560.88;;;21.64
75273;BMP280;63869;52.344;16.928;2023-04-24T09:50:10;99559.31;;;21.74
75273;BMP280;63869;52.344;16.928;2023-04-24T09:52:39;99560.25;;;21.76
75273;BMP280;63869;52.344;16.928;2023-04-24T09:55:11;99556.59;;;21.74
75273;BMP280;63869;52.344;16.928;2023-04-24T09:57:47;99566.25;;;21.69
75273;BMP280;63869;52.344;16.928;2023-04-24T10:00:13;99569.16;;;21.77
75273;BMP280;63869;52.344;16.928;2023-04-24T10:02:38;99565.41;;;21.80
75273;BMP280;63869;52.344;16.928;2023-04-24T10:05:04;99566.13;;;21.80
75273;BMP280;63869;52.344;16.928;2023-04-24T10:07:32;99568.47;;;21.71
75273;BMP280;63869;52.344;16.928;2023-04-24T10:09:58;99567.81;;;21.65
75273;BMP280;63869;52.344;16.928;2023-04-24T10:12:23;99566.47;;;21.53
75273;BMP280;63869;52.344;16.928;2023-04-24T10:14:50;99562.25;;;21.52
75273;BMP280;63869;52.344;16.928;2023-04-24T10:17:15;99563.69;;;21.58
75273;BMP280;63869;52.344;16.928;2023-04-24T10:19:42;99566.91;;;21.57
75273;BMP280;63869;52.344;16.928;2023-04-24T10:22:08;99564.44;;;21.59
75273;BMP280;63869;52.344;16.928;2023-04-24T10:24:34;99563.97;;;21.55
75273;BMP280;63869;52.344;16.928;2023-04-24T10:27:02;99565.41;;;21.56
75273;BMP280;63869;52.344;16.928;2023-04-24T10:29:31;99565.31;;;21.67
75273;BMP280;63869;52.344;16.928;2023-04-24T10:31:56;99570.84;;;21.80
75273;BMP280;63869;52.344;16.928;2023-04-24T10:34:22;99567.28;;;21.91
75273;BMP280;63869;52.344;16.928;2023-04-24T10:36:51;99580.91;;;21.85
75273;BMP280;63869;52.344;16.928;2023-04-24T10:39:18;99566.97;;;21.94
75273;BMP280;63869;52.344;16.928;2023-04-24T10:41:45;99572.84;;;21.98
75273;BMP280;63869;52.344;16.928;2023-04-24T10:44:15;99562.34;;;21.89
75273;BMP280;63869;52.344;16.928;2023-04-24T10:46:53;99559.00;;;21.77
75273;BMP280;63869;52.344;16.928;2023-04-24T10:49:28;99574.44;;;21.69
75273;BMP280;63869;52.344;16.928;2023-04-24T10:52:00;99570.63;;;21.78
75273;BMP280;63869;52.344;16.928;2023-04-24T10:54:33;99568.13;;;21.80
75273;BMP280;63869;52.344;16.928;2023-04-24T10:59:43;99571.50;;;21.86
75273;BMP280;63869;52.344;16.928;2023-04-24T11:02:09;99570.53;;;21.83
75273;BMP280;63869;52.344;16.928;2023-04-24T11:04:35;99576.88;;;21.92
75273;BMP280;63869;52.344;16.928;2023-04-24T11:07:01;99571.69;;;21.94
75273;BMP280;63869;52.344;16.928;2023-04-24T11:09:27;99568.75;;;22.10
75273;BMP280;63869;52.344;16.928;2023-04-24T11:12:09;99571.09;;;22.19
75273;BMP280;63869;52.344;16.928;2023-04-24T11:20:00;99577.69;;;22.43
75273;BMP280;63869;52.344;16.928;2023-04-24T11:22:28;99583.19;;;22.56
75273;BMP280;63869;52.344;16.928;2023-04-24T11:24:54;99579.50;;;22.53
75273;BMP280;63869;52.344;16.928;2023-04-24T11:27:21;99583.78;;;22.49
75273;BMP280;63869;52.344;16.928;2023-04-24T11:35:00;99591.53;;;22.07
75273;BMP280;63869;52.344;16.928;2023-04-24T11:37:39;99593.63;;;22.20
75273;BMP280;63869;52.344;16.928;2023-04-24T11:40:07;99591.91;;;22.17
75273;BMP280;63869;52.344;16.928;2023-04-24T11:42:36;99589.84;;;22.23
75273;BMP280;63869;52.344;16.928;2023-04-24T11:45:07;99583.75;;;22.36
75273;BMP280;63869;52.344;16.928;2023-04-24T11:47:32;99579.22;;;22.38
75273;BMP280;63869;52.344;16.928;2023-04-24T11:50:02;99580.97;;;22.54
75273;BMP280;63869;52.344;16.928;2023-04-24T11:52:29;99582.00;;;22.83
75273;BMP280;63869;52.344;16.928;2023-04-24T11:55:01;99581.53;;;22.98
75273;BMP280;63869;52.344;16.928;2023-04-24T11:57:27;99585.38;;;23.02
75273;BMP280;63869;52.344;16.928;2023-04-24T11:59:53;99588.53;;;23.06
75273;BMP280;63869;52.344;16.928;2023-04-24T12:02:23;99584.13;;;23.03
75273;BMP280;63869;52.344;16.928;2023-04-24T12:04:48;99581.59;;;22.92
75273;BMP280;63869;52.344;16.928;2023-04-24T12:07:15;99575.56;;;22.81
75273;BMP280;63869;52.344;16.928;2023-04-24T12:09:45;99579.44;;;22.72
75273;BMP280;63869;52.344;16.928;2023-04-24T12:12:13;99574.59;;;22.52
75273;BMP280;63869;52.344;16.928;2023-04-24T12:14:49;99571.34;;;22.35
75273;BMP280;63869;52.344;16.928;2023-04-24T12:17:27;99568.75;;;22.10
75273;BMP280;63869;52.344;16.928;2023-04-24T12:19:57;99570.34;;;21.81
75273;BMP280;63869;52.344;16.928;2023-04-24T12:22:23;99574.16;;;21.49
75273;BMP280;63869;52.344;16.928;2023-04-24T12:25:03;99565.22;;;21.29
75273;BMP280;63869;52.344;16.928;2023-04-24T12:27:32;99561.94;;;21.12
75273;BMP280;63869;52.344;16.928;2023-04-24T12:30:04;99555.72;;;20.87
75273;BMP280;63869;52.344;16.928;2023-04-24T12:32:29;99537.19;;;20.56
75273;BMP280;63869;52.344;16.928;2023-04-24T12:34:55;99539.22;;;20.44
75273;BMP280;63869;52.344;16.928;2023-04-24T12:37:23;99534.41;;;20.26
75273;BMP280;63869;52.344;16.928;2023-04-24T12:42:28;99547.69;;;19.83
75273;BMP280;63869;52.344;16.928;2023-04-24T12:45:05;99543.56;;;19.71
75273;BMP280;63869;52.344;16.928;2023-04-24T12:47:32;99546.03;;;19.63
75273;BMP280;63869;52.344;16.928;2023-04-24T12:49:57;99548.78;;;19.58
75273;BMP280;63869;52.344;16.928;2023-04-24T12:52:24;99554.22;;;19.47
75273;BMP280;63869;52.344;16.928;2023-04-24T12:54:50;99549.31;;;19.45
75273;BMP280;63869;52.344;16.928;2023-04-24T12:57:17;99539.44;;;19.42
75273;BMP280;63869;52.344;16.928;2023-04-24T12:59:43;99545.59;;;19.48
75273;BMP280;63869;52.344;16.928;2023-04-24T13:02:09;99543.84;;;19.56
75273;BMP280;63869;52.344;16.928;2023-04-24T13:04:35;99542.34;;;19.66
75273;BMP280;63869;52.344;16.928;2023-04-24T13:07:00;99539.84;;;19.79
75273;BMP280;63869;52.344;16.928;2023-04-24T13:09:25;99546.66;;;19.97
75273;BMP280;63869;52.344;16.928;2023-04-24T13:11:51;99540.22;;;20.06
75273;BMP280;63869;52.344;16.928;2023-04-24T13:14:19;99543.91;;;20.08
75273;BMP280;63869;52.344;16.928;2023-04-24T13:16:44;99530.31;;;20.08
75273;BMP280;63869;52.344;16.928;2023-04-24T13:19:10;99526.66;;;20.06
75273;BMP280;63869;52.344;16.928;2023-04-24T13:21:35;99516.56;;;20.01
75273;BMP280;63869;52.344;16.928;2023-04-24T13:24:00;99520.97;;;19.98
75273;BMP280;63869;52.344;16.928;2023-04-24T13:26:26;99518.78;;;19.97
75273;BMP280;63869;52.344;16.928;2023-04-24T13:28:51;99513.84;;;19.95
75273;BMP280;63869;52.344;16.928;2023-04-24T13:31:17;99518.28;;;19.98
75273;BMP280;63869;52.344;16.928;2023-04-24T13:33:42;99517.53;;;20.03
75273;BMP280;63869;52.344;16.928;2023-04-24T13:36:07;99527.63;;;20.08
75273;BMP280;63869;52.344;16.928;2023-04-24T13:38:33;99522.88;;;20.14
75273;BMP280;63869;52.344;16.928;2023-04-24T13:40:58;99522.41;;;20.10
75273;BMP280;63869;52.344;16.928;2023-04-24T13:43:23;99527.59;;;20.14
75273;BMP280;63869;52.344;16.928;2023-04-24T13:45:49;99524.88;;;20.14
75273;BMP280;63869;52.344;16.928;2023-04-24T13:48:14;99522.22;;;20.03
75273;BMP280;63869;52.344;16.928;2023-04-24T13:50:41;99523.19;;;20.05
75273;BMP280;63869;52.344;16.928;2023-04-24T13:53:06;99529.59;;;20.08
75273;BMP280;63869;52.344;16.928;2023-04-24T13:55:32;99529.59;;;20.08
75273;BMP280;63869;52.344;16.928;2023-04-24T13:57:57;99526.91;;;20.02
75273;BMP280;63869;52.344;16.928;2023-04-24T14:00:23;99524.19;;;20.02
75273;BMP280;63869;52.344;16.928;2023-04-24T14:02:48;99533.59;;;19.96
75273;BMP280;63869;52.344;16.928;2023-04-24T14:05:14;99528.97;;;19.79
75273;BMP280;63869;52.344;16.928;2023-04-24T14:07:40;99533.16;;;19.80